sensor_id;sensor_type;location;lat;lon;timestamp;P1;durP1;ratioP1;P2;durP2;ratioP2
72156;SDS011;60035;52.122;5.406;2022-10-16T00:01:18;7.90;;;1.60;;
72156;SDS011;60035;52.122;5.406;2022-10-16T00:03:46;5.65;;;1.33;;
72156;SDS011;60035;52.122;5.406;2022-10-16T00:06:14;4.60;;;1.42;;
72156;SDS011;60035;52.122;5.406;2022-10-16T00:08:42;7.22;;;1.67;;
72156;SDS011;60035;52.122;5.406;2022-10-16T00:13:38;5.93;;;1.70;;
72156;SDS011;60035;52.122;5.406;2022-10-16T00:16:06;6.53;;;1.60;;
72156;SDS011;60035;52.122;5.406;2022-10-16T00:18:34;7.85;;;1.63;;
72156;SDS011;60035;52.122;5.406;2022-10-16T00:23:55;5.72;;;1.45;;
72156;SDS011;60035;52.122;5.406;2022-10-16T00:26:32;6.93;;;1.40;;
72156;SDS011;60035;52.122;5.406;2022-10-16T00:29:00;7.00;;;1.83;;
72156;SDS011;60035;52.122;5.406;2022-10-16T00:31:26;8.00;;;2.00;;
72156;SDS011;60035;52.122;5.406;2022-10-16T00:33:53;7.43;;;1.90;;
72156;SDS011;60035;52.122;5.406;2022-10-16T00:36:21;7.20;;;1.80;;
72156;SDS011;60035;52.122;5.406;2022-10-16T00:38:52;10.60;;;2.33;;
72156;SDS011;60035;52.122;5.406;2022-10-16T00:41:22;5.72;;;1.70;;
72156;SDS011;60035;52.122;5.406;2022-10-16T00:43:51;6.68;;;2.00;;
72156;SDS011;60035;52.122;5.406;2022-10-16T00:51:39;5.90;;;1.70;;
72156;SDS011;60035;52.122;5.406;2022-10-16T00:54:09;5.50;;;1.58;;
72156;SDS011;60035;52.122;5.406;2022-10-16T00:56:38;9.82;;;2.40;;
72156;SDS011;60035;52.122;5.406;2022-10-16T00:59:06;6.97;;;2.40;;
72156;SDS011;60035;52.122;5.406;2022-10-16T01:01:40;8.48;;;2.28;;
72156;SDS011;60035;52.122;5.406;2022-10-16T01:04:06;7.65;;;2.40;;
72156;SDS011;60035;52.122;5.406;2022-10-16T01:09:29;7.72;;;2.75;;
72156;SDS011;60035;52.122;5.406;2022-10-16T01:12:22;8.10;;;2.90;;
72156;SDS011;60035;52.122;5.406;2022-10-16T01:15:12;8.57;;;2.97;;
72156;SDS011;60035;52.122;5.406;2022-10-16T01:20:27;7.28;;;2.90;;
72156;SDS011;60035;52.122;5.406;2022-10-16T01:25:36;7.60;;;3.10;;
72156;SDS011;60035;52.122;5.406;2022-10-16T01:28:24;7.68;;;2.80;;
72156;SDS011;60035;52.122;5.406;2022-10-16T01:30:58;8.93;;;3.30;;
72156;SDS011;60035;52.122;5.406;2022-10-16T01:33:38;7.32;;;3.05;;
72156;SDS011;60035;52.122;5.406;2022-10-16T01:36:13;9.48;;;3.65;;
72156;SDS011;60035;52.122;5.406;2022-10-16T01:38:43;7.80;;;3.00;;
72156;SDS011;60035;52.122;5.406;2022-10-16T01:44:04;7.63;;;3.00;;
72156;SDS011;60035;52.122;5.406;2022-10-16T01:46:36;10.98;;;3.47;;
72156;SDS011;60035;52.122;5.406;2022-10-16T01:49:06;8.70;;;4.28;;
72156;SDS011;60035;52.122;5.406;2022-10-16T01:51:36;8.20;;;3.30;;
72156;SDS011;60035;52.122;5.406;2022-10-16T01:54:03;10.40;;;3.03;;
72156;SDS011;60035;52.122;5.406;2022-10-16T01:56:34;8.25;;;3.03;;
72156;SDS011;60035;52.122;5.406;2022-10-16T01:59:06;8.50;;;3.20;;
72156;SDS011;60035;52.122;5.406;2022-10-16T02:01:38;6.93;;;2.97;;
72156;SDS011;60035;52.122;5.406;2022-10-16T02:04:10;7.72;;;2.72;;
72156;SDS011;60035;52.122;5.406;2022-10-16T02:06:40;7.43;;;2.83;;
72156;SDS011;60035;52.122;5.406;2022-10-16T02:09:07;6.82;;;3.55;;
72156;SDS011;60035;52.122;5.406;2022-10-16T02:11:35;10.70;;;2.70;;
72156;SDS011;60035;52.122;5.406;2022-10-16T02:14:02;7.10;;;2.60;;
72156;SDS011;60035;52.122;5.406;2022-10-16T02:16:41;9.98;;;2.53;;
72156;SDS011;60035;52.122;5.406;2022-10-16T02:19:09;6.75;;;2.38;;
72156;SDS011;60035;52.122;5.406;2022-10-16T02:27:03;6.55;;;2.25;;
72156;SDS011;60035;52.122;5.406;2022-10-16T02:29:49;6.70;;;2.60;;
72156;SDS011;60035;52.122;5.406;2022-10-16T02:32:25;6.45;;;2.30;;
72156;SDS011;60035;52.122;5.406;2022-10-16T02:34:56;6.38;;;2.38;;
72156;SDS011;60035;52.122;5.406;2022-10-16T02:37:25;7.82;;;2.25;;
72156;SDS011;60035;52.122;5.406;2022-10-16T02:39:53;5.93;;;2.22;;
72156;SDS011;60035;52.122;5.406;2022-10-16T02:42:26;6.57;;;2.33;;
72156;SDS011;60035;52.122;5.406;2022-10-16T02:44:54;6.10;;;2.67;;
72156;SDS011;60035;52.122;5.406;2022-10-16T02:47:21;8.45;;;2.55;;
72156;SDS011;60035;52.122;5.406;2022-10-16T02:49:47;6.80;;;2.35;;
72156;SDS011;60035;52.122;5.406;2022-10-16T02:52:13;9.48;;;2.30;;
72156;SDS011;60035;52.122;5.406;2022-10-16T02:54:40;8.85;;;2.75;;
72156;SDS011;60035;52.122;5.406;2022-10-16T02:57:06;6.70;;;2.30;;
72156;SDS011;60035;52.122;5.406;2022-10-16T02:59:33;6.88;;;2.33;;
72156;SDS011;60035;52.122;5.406;2022-10-16T03:01:59;6.50;;;2.50;;
72156;SDS011;60035;52.122;5.406;2022-10-16T03:04:25;6.05;;;2.30;;
72156;SDS011;60035;52.122;5.406;2022-10-16T03:06:52;7.28;;;2.42;;
72156;SDS011;60035;52.122;5.406;2022-10-16T03:09:18;6.07;;;2.20;;
72156;SDS011;60035;52.122;5.406;2022-10-16T03:11:44;6.35;;;2.22;;
72156;SDS011;60035;52.122;5.406;2022-10-16T03:14:11;7.68;;;2.63;;
72156;SDS011;60035;52.122;5.406;2022-10-16T03:16:37;7.00;;;2.55;;
72156;SDS011;60035;52.122;5.406;2022-10-16T03:19:04;7.30;;;2.03;;
72156;SDS011;60035;52.122;5.406;2022-10-16T03:21:30;7.45;;;2.20;;
72156;SDS011;60035;52.122;5.406;2022-10-16T03:23:56;5.55;;;2.10;;
72156;SDS011;60035;52.122;5.406;2022-10-16T03:26:23;6.47;;;2.63;;
72156;SDS011;60035;52.122;5.406;2022-10-16T03:28:49;9.13;;;2.30;;
72156;SDS011;60035;52.122;5.406;2022-10-16T03:31:16;7.90;;;2.22;;
72156;SDS011;60035;52.122;5.406;2022-10-16T03:33:42;5.72;;;2.70;;
72156;SDS011;60035;52.122;5.406;2022-10-16T03:36:09;8.35;;;2.80;;
72156;SDS011;60035;52.122;5.406;2022-10-16T03:38:35;6.15;;;1.92;;
72156;SDS011;60035;52.122;5.406;2022-10-16T03:41:02;6.03;;;2.00;;
72156;SDS011;60035;52.122;5.406;2022-10-16T03:43:30;7.72;;;2.00;;
72156;SDS011;60035;52.122;5.406;2022-10-16T03:45:56;7.45;;;2.20;;
72156;SDS011;60035;52.122;5.406;2022-10-16T03:48:22;5.00;;;2.15;;
72156;SDS011;60035;52.122;5.406;2022-10-16T03:50:49;8.30;;;2.22;;
72156;SDS011;60035;52.122;5.406;2022-10-16T03:53:16;9.38;;;2.60;;
72156;SDS011;60035;52.122;5.406;2022-10-16T03:55:42;8.90;;;2.53;;
72156;SDS011;60035;52.122;5.406;2022-10-16T03:58:10;6.70;;;2.20;;
72156;SDS011;60035;52.122;5.406;2022-10-16T04:00:41;7.97;;;2.30;;
72156;SDS011;60035;52.122;5.406;2022-10-16T04:03:08;8.30;;;2.60;;
72156;SDS011;60035;52.122;5.406;2022-10-16T04:05:35;7.63;;;2.80;;
72156;SDS011;60035;52.122;5.406;2022-10-16T04:08:02;6.47;;;2.30;;
72156;SDS011;60035;52.122;5.406;2022-10-16T04:10:29;6.25;;;2.20;;
72156;SDS011;60035;52.122;5.406;2022-10-16T04:12:55;5.78;;;2.20;;
72156;SDS011;60035;52.122;5.406;2022-10-16T04:15:22;7.50;;;2.58;;
72156;SDS011;60035;52.122;5.406;2022-10-16T04:17:49;6.82;;;2.40;;
72156;SDS011;60035;52.122;5.406;2022-10-16T04:20:16;6.72;;;1.75;;
72156;SDS011;60035;52.122;5.406;2022-10-16T04:22:43;7.78;;;1.92;;
72156;SDS011;60035;52.122;5.406;2022-10-16T04:25:10;6.55;;;1.90;;
72156;SDS011;60035;52.122;5.406;2022-10-16T04:27:38;5.50;;;2.00;;
72156;SDS011;60035;52.122;5.406;2022-10-16T04:30:10;6.85;;;1.98;;
72156;SDS011;60035;52.122;5.406;2022-10-16T04:32:36;7.63;;;1.92;;
72156;SDS011;60035;52.122;5.406;2022-10-16T04:35:03;4.35;;;1.48;;
72156;SDS011;60035;52.122;5.406;2022-10-16T04:37:29;6.38;;;1.60;;
72156;SDS011;60035;52.122;5.406;2022-10-16T04:39:56;7.22;;;1.80;;
72156;SDS011;60035;52.122;5.406;2022-10-16T04:42:22;6.88;;;1.88;;
72156;SDS011;60035;52.122;5.406;2022-10-16T04:44:49;5.82;;;1.73;;
72156;SDS011;60035;52.122;5.406;2022-10-16T04:47:15;5.90;;;1.77;;
72156;SDS011;60035;52.122;5.406;2022-10-16T04:49:41;5.30;;;1.73;;
72156;SDS011;60035;52.122;5.406;2022-10-16T04:52:08;5.25;;;1.88;;
72156;SDS011;60035;52.122;5.406;2022-10-16T04:54:35;6.63;;;2.15;;
72156;SDS011;60035;52.122;5.406;2022-10-16T04:57:02;6.18;;;1.70;;
72156;SDS011;60035;52.122;5.406;2022-10-16T04:59:28;5.13;;;1.85;;
72156;SDS011;60035;52.122;5.406;2022-10-16T05:01:54;5.40;;;1.50;;
72156;SDS011;60035;52.122;5.406;2022-10-16T05:04:21;7.97;;;1.70;;
72156;SDS011;60035;52.122;5.406;2022-10-16T05:06:47;4.28;;;1.40;;
72156;SDS011;60035;52.122;5.406;2022-10-16T05:09:14;5.25;;;1.90;;
72156;SDS011;60035;52.122;5.406;2022-10-16T05:11:40;4.60;;;1.65;;
72156;SDS011;60035;52.122;5.406;2022-10-16T05:14:06;4.88;;;1.58;;
72156;SDS011;60035;52.122;5.406;2022-10-16T05:16:33;4.78;;;1.50;;
72156;SDS011;60035;52.122;5.406;2022-10-16T05:19:00;7.80;;;1.50;;
72156;SDS011;60035;52.122;5.406;2022-10-16T05:21:46;3.55;;;1.13;;
72156;SDS011;60035;52.122;5.406;2022-10-16T05:24:12;4.40;;;1.50;;
72156;SDS011;60035;52.122;5.406;2022-10-16T05:26:39;7.20;;;1.75;;
72156;SDS011;60035;52.122;5.406;2022-10-16T05:29:09;5.07;;;1.75;;
72156;SDS011;60035;52.122;5.406;2022-10-16T05:31:35;7.03;;;1.63;;
72156;SDS011;60035;52.122;5.406;2022-10-16T05:34:02;4.15;;;1.30;;
72156;SDS011;60035;52.122;5.406;2022-10-16T05:36:28;6.47;;;1.73;;
72156;SDS011;60035;52.122;5.406;2022-10-16T05:38:55;4.35;;;1.40;;
72156;SDS011;60035;52.122;5.406;2022-10-16T05:41:21;8.02;;;1.70;;
72156;SDS011;60035;52.122;5.406;2022-10-16T05:43:49;5.22;;;1.70;;
72156;SDS011;60035;52.122;5.406;2022-10-16T05:46:16;5.57;;;1.70;;
72156;SDS011;60035;52.122;5.406;2022-10-16T05:48:42;4.63;;;1.40;;
72156;SDS011;60035;52.122;5.406;2022-10-16T05:51:10;6.72;;;1.52;;
72156;SDS011;60035;52.122;5.406;2022-10-16T05:53:38;5.18;;;2.10;;
72156;SDS011;60035;52.122;5.406;2022-10-16T05:56:06;8.50;;;2.08;;
72156;SDS011;60035;52.122;5.406;2022-10-16T05:58:35;6.15;;;2.40;;
72156;SDS011;60035;52.122;5.406;2022-10-16T06:01:03;8.77;;;2.55;;
72156;SDS011;60035;52.122;5.406;2022-10-16T06:06:07;5.95;;;1.70;;
72156;SDS011;60035;52.122;5.406;2022-10-16T06:08:42;5.40;;;1.77;;
72156;SDS011;60035;52.122;5.406;2022-10-16T06:11:10;6.72;;;2.00;;
72156;SDS011;60035;52.122;5.406;2022-10-16T06:13:40;4.65;;;1.60;;
72156;SDS011;60035;52.122;5.406;2022-10-16T06:16:09;4.85;;;1.77;;
72156;SDS011;60035;52.122;5.406;2022-10-16T06:18:36;7.40;;;2.05;;
72156;SDS011;60035;52.122;5.406;2022-10-16T06:21:09;7.18;;;2.15;;
72156;SDS011;60035;52.122;5.406;2022-10-16T06:23:43;4.75;;;1.60;;
72156;SDS011;60035;52.122;5.406;2022-10-16T06:26:16;4.65;;;2.30;;
72156;SDS011;60035;52.122;5.406;2022-10-16T06:28:44;6.50;;;1.77;;
72156;SDS011;60035;52.122;5.406;2022-10-16T06:31:11;5.50;;;2.30;;
72156;SDS011;60035;52.122;5.406;2022-10-16T06:33:39;5.88;;;1.90;;
72156;SDS011;60035;52.122;5.406;2022-10-16T06:36:13;8.68;;;2.55;;
72156;SDS011;60035;52.122;5.406;2022-10-16T06:38:41;5.80;;;1.70;;
72156;SDS011;60035;52.122;5.406;2022-10-16T06:41:09;6.70;;;2.00;;
72156;SDS011;60035;52.122;5.406;2022-10-16T06:43:38;9.60;;;2.78;;
72156;SDS011;60035;52.122;5.406;2022-10-16T06:46:05;6.90;;;2.00;;
72156;SDS011;60035;52.122;5.406;2022-10-16T06:48:36;7.07;;;1.95;;
72156;SDS011;60035;52.122;5.406;2022-10-16T06:51:08;6.32;;;1.90;;
72156;SDS011;60035;52.122;5.406;2022-10-16T06:53:37;6.70;;;2.10;;
72156;SDS011;60035;52.122;5.406;2022-10-16T06:56:27;6.70;;;1.85;;
72156;SDS011;60035;52.122;5.406;2022-10-16T06:58:55;6.47;;;2.03;;
72156;SDS011;60035;52.122;5.406;2022-10-16T07:01:22;6.07;;;2.28;;
72156;SDS011;60035;52.122;5.406;2022-10-16T07:03:50;6.75;;;2.70;;
72156;SDS011;60035;52.122;5.406;2022-10-16T07:06:17;7.15;;;2.15;;
72156;SDS011;60035;52.122;5.406;2022-10-16T07:08:46;6.18;;;1.80;;
72156;SDS011;60035;52.122;5.406;2022-10-16T07:11:14;5.85;;;1.90;;
72156;SDS011;60035;52.122;5.406;2022-10-16T07:13:42;7.32;;;1.80;;
72156;SDS011;60035;52.122;5.406;2022-10-16T07:16:19;8.07;;;2.33;;
72156;SDS011;60035;52.122;5.406;2022-10-16T07:18:47;7.55;;;2.00;;
72156;SDS011;60035;52.122;5.406;2022-10-16T07:21:15;4.72;;;1.75;;
72156;SDS011;60035;52.122;5.406;2022-10-16T07:23:43;4.45;;;1.48;;
72156;SDS011;60035;52.122;5.406;2022-10-16T07:26:10;5.90;;;1.70;;
72156;SDS011;60035;52.122;5.406;2022-10-16T07:28:37;5.00;;;1.60;;
72156;SDS011;60035;52.122;5.406;2022-10-16T07:31:06;6.05;;;2.13;;
72156;SDS011;60035;52.122;5.406;2022-10-16T07:33:34;8.07;;;1.75;;
72156;SDS011;60035;52.122;5.406;2022-10-16T07:36:01;7.00;;;1.50;;
72156;SDS011;60035;52.122;5.406;2022-10-16T07:38:27;5.05;;;1.35;;
72156;SDS011;60035;52.122;5.406;2022-10-16T07:40:57;4.55;;;1.30;;
72156;SDS011;60035;52.122;5.406;2022-10-16T07:43:25;3.40;;;1.13;;
72156;SDS011;60035;52.122;5.406;2022-10-16T07:45:52;5.45;;;1.25;;
72156;SDS011;60035;52.122;5.406;2022-10-16T07:48:20;5.85;;;1.98;;
72156;SDS011;60035;52.122;5.406;2022-10-16T07:50:47;6.90;;;1.38;;
72156;SDS011;60035;52.122;5.406;2022-10-16T07:53:13;4.55;;;1.38;;
72156;SDS011;60035;52.122;5.406;2022-10-16T07:55:40;5.95;;;1.88;;
72156;SDS011;60035;52.122;5.406;2022-10-16T07:58:07;4.88;;;1.73;;
72156;SDS011;60035;52.122;5.406;2022-10-16T08:00:35;8.90;;;2.00;;
72156;SDS011;60035;52.122;5.406;2022-10-16T08:03:02;7.18;;;2.03;;
72156;SDS011;60035;52.122;5.406;2022-10-16T08:05:29;5.72;;;1.52;;
72156;SDS011;60035;52.122;5.406;2022-10-16T08:07:57;5.80;;;1.77;;
72156;SDS011;60035;52.122;5.406;2022-10-16T08:10:24;6.95;;;1.83;;
72156;SDS011;60035;52.122;5.406;2022-10-16T08:12:52;7.32;;;1.88;;
72156;SDS011;60035;52.122;5.406;2022-10-16T08:15:19;8.02;;;1.80;;
72156;SDS011;60035;52.122;5.406;2022-10-16T08:17:58;4.65;;;1.88;;
72156;SDS011;60035;52.122;5.406;2022-10-16T08:20:27;6.88;;;1.77;;
72156;SDS011;60035;52.122;5.406;2022-10-16T08:22:54;8.48;;;2.33;;
72156;SDS011;60035;52.122;5.406;2022-10-16T08:25:21;4.82;;;1.80;;
72156;SDS011;60035;52.122;5.406;2022-10-16T08:27:49;4.03;;;1.50;;
72156;SDS011;60035;52.122;5.406;2022-10-16T08:30:16;6.32;;;1.90;;
72156;SDS011;60035;52.122;5.406;2022-10-16T08:32:45;3.63;;;1.40;;
72156;SDS011;60035;52.122;5.406;2022-10-16T08:35:12;5.03;;;1.52;;
72156;SDS011;60035;52.122;5.406;2022-10-16T08:37:40;6.95;;;1.83;;
72156;SDS011;60035;52.122;5.406;2022-10-16T08:40:14;8.35;;;2.17;;
72156;SDS011;60035;52.122;5.406;2022-10-16T08:42:53;6.40;;;1.60;;
72156;SDS011;60035;52.122;5.406;2022-10-16T08:45:58;3.90;;;1.33;;
72156;SDS011;60035;52.122;5.406;2022-10-16T08:48:50;6.82;;;1.77;;
72156;SDS011;60035;52.122;5.406;2022-10-16T08:51:28;6.55;;;1.38;;
72156;SDS011;60035;52.122;5.406;2022-10-16T08:53:57;5.57;;;1.55;;
72156;SDS011;60035;52.122;5.406;2022-10-16T08:56:27;5.45;;;1.50;;
72156;SDS011;60035;52.122;5.406;2022-10-16T08:58:58;8.57;;;1.85;;
72156;SDS011;60035;52.122;5.406;2022-10-16T09:01:38;5.32;;;1.25;;
72156;SDS011;60035;52.122;5.406;2022-10-16T09:07:02;5.55;;;1.55;;
72156;SDS011;60035;52.122;5.406;2022-10-16T09:10:01;6.10;;;1.60;;
72156;SDS011;60035;52.122;5.406;2022-10-16T09:13:14;5.47;;;1.58;;
72156;SDS011;60035;52.122;5.406;2022-10-16T09:21:51;5.40;;;1.38;;
72156;SDS011;60035;52.122;5.406;2022-10-16T09:24:24;7.38;;;1.48;;
72156;SDS011;60035;52.122;5.406;2022-10-16T09:26:54;8.00;;;1.75;;
72156;SDS011;60035;52.122;5.406;2022-10-16T09:29:21;10.60;;;2.08;;
72156;SDS011;60035;52.122;5.406;2022-10-16T09:31:49;6.70;;;1.45;;
72156;SDS011;60035;52.122;5.406;2022-10-16T09:37:10;6.57;;;1.17;;
72156;SDS011;60035;52.122;5.406;2022-10-16T09:39:53;7.43;;;1.30;;
72156;SDS011;60035;52.122;5.406;2022-10-16T09:42:22;9.82;;;1.73;;
72156;SDS011;60035;52.122;5.406;2022-10-16T09:44:53;5.95;;;1.10;;
72156;SDS011;60035;52.122;5.406;2022-10-16T09:47:23;6.95;;;1.20;;
72156;SDS011;60035;52.122;5.406;2022-10-16T09:49:55;6.82;;;1.42;;
72156;SDS011;60035;52.122;5.406;2022-10-16T09:52:25;6.90;;;1.20;;
72156;SDS011;60035;52.122;5.406;2022-10-16T09:54:56;7.97;;;1.52;;
72156;SDS011;60035;52.122;5.406;2022-10-16T09:57:24;8.00;;;1.50;;
72156;SDS011;60035;52.122;5.406;2022-10-16T09:59:52;7.85;;;1.25;;
72156;SDS011;60035;52.122;5.406;2022-10-16T10:02:26;8.55;;;1.30;;
72156;SDS011;60035;52.122;5.406;2022-10-16T10:05:02;7.22;;;1.10;;
72156;SDS011;60035;52.122;5.406;2022-10-16T10:07:31;8.32;;;1.38;;
72156;SDS011;60035;52.122;5.406;2022-10-16T10:10:03;10.68;;;1.40;;
72156;SDS011;60035;52.122;5.406;2022-10-16T10:12:31;7.63;;;2.30;;
72156;SDS011;60035;52.122;5.406;2022-10-16T10:15:04;9.57;;;1.42;;
72156;SDS011;60035;52.122;5.406;2022-10-16T10:17:31;10.63;;;2.10;;
72156;SDS011;60035;52.122;5.406;2022-10-16T10:20:14;9.13;;;1.40;;
72156;SDS011;60035;52.122;5.406;2022-10-16T10:22:48;8.48;;;1.15;;
72156;SDS011;60035;52.122;5.406;2022-10-16T10:25:19;9.32;;;1.65;;
72156;SDS011;60035;52.122;5.406;2022-10-16T10:28:03;9.00;;;1.73;;
72156;SDS011;60035;52.122;5.406;2022-10-16T10:30:37;8.77;;;1.23;;
72156;SDS011;60035;52.122;5.406;2022-10-16T10:44:38;8.65;;;1.15;;
72156;SDS011;60035;52.122;5.406;2022-10-16T10:47:18;8.30;;;1.67;;
72156;SDS011;60035;52.122;5.406;2022-10-16T10:50:00;8.10;;;1.70;;
72156;SDS011;60035;52.122;5.406;2022-10-16T10:52:48;5.78;;;1.50;;
72156;SDS011;60035;52.122;5.406;2022-10-16T10:55:36;9.48;;;1.40;;
72156;SDS011;60035;52.122;5.406;2022-10-16T10:58:18;9.10;;;1.20;;
72156;SDS011;60035;52.122;5.406;2022-10-16T11:03:42;14.73;;;1.60;;
72156;SDS011;60035;52.122;5.406;2022-10-16T11:06:32;6.57;;;1.20;;
72156;SDS011;60035;52.122;5.406;2022-10-16T11:09:23;10.05;;;1.20;;
72156;SDS011;60035;52.122;5.406;2022-10-16T11:17:13;5.97;;;1.10;;
72156;SDS011;60035;52.122;5.406;2022-10-16T11:19:54;8.57;;;1.50;;
72156;SDS011;60035;52.122;5.406;2022-10-16T11:22:34;6.70;;;1.40;;
72156;SDS011;60035;52.122;5.406;2022-10-16T11:25:13;10.50;;;1.48;;
72156;SDS011;60035;52.122;5.406;2022-10-16T11:27:50;6.32;;;1.08;;
72156;SDS011;60035;52.122;5.406;2022-10-16T11:30:49;8.32;;;1.30;;
72156;SDS011;60035;52.122;5.406;2022-10-16T11:33:23;6.47;;;1.10;;
72156;SDS011;60035;52.122;5.406;2022-10-16T11:41:29;7.85;;;1.02;;
72156;SDS011;60035;52.122;5.406;2022-10-16T11:50:09;7.85;;;1.30;;
72156;SDS011;60035;52.122;5.406;2022-10-16T11:55:27;7.32;;;1.55;;
72156;SDS011;60035;52.122;5.406;2022-10-16T11:58:03;5.63;;;1.10;;
72156;SDS011;60035;52.122;5.406;2022-10-16T12:00:38;6.25;;;1.70;;
72156;SDS011;60035;52.122;5.406;2022-10-16T12:03:29;6.35;;;1.00;;
72156;SDS011;60035;52.122;5.406;2022-10-16T12:09:03;8.75;;;1.20;;
72156;SDS011;60035;52.122;5.406;2022-10-16T12:11:32;6.18;;;1.00;;
72156;SDS011;60035;52.122;5.406;2022-10-16T12:16:33;10.07;;;1.85;;
72156;SDS011;60035;52.122;5.406;2022-10-16T12:19:09;5.22;;;1.00;;
72156;SDS011;60035;52.122;5.406;2022-10-16T12:21:38;10.63;;;1.33;;
72156;SDS011;60035;52.122;5.406;2022-10-16T12:24:05;8.75;;;1.02;;
72156;SDS011;60035;52.122;5.406;2022-10-16T12:26:32;6.85;;;1.10;;
72156;SDS011;60035;52.122;5.406;2022-10-16T12:32:03;5.53;;;1.13;;
72156;SDS011;60035;52.122;5.406;2022-10-16T12:37:20;4.68;;;1.00;;
72156;SDS011;60035;52.122;5.406;2022-10-16T12:39:49;6.10;;;0.95;;
72156;SDS011;60035;52.122;5.406;2022-10-16T12:42:19;4.32;;;0.80;;
72156;SDS011;60035;52.122;5.406;2022-10-16T12:44:53;6.63;;;0.90;;
72156;SDS011;60035;52.122;5.406;2022-10-16T12:49:56;13.05;;;1.73;;
72156;SDS011;60035;52.122;5.406;2022-10-16T12:54:57;5.45;;;0.93;;
72156;SDS011;60035;52.122;5.406;2022-10-16T13:11:05;7.78;;;0.93;;
72156;SDS011;60035;52.122;5.406;2022-10-16T13:17:01;9.00;;;1.20;;
72156;SDS011;60035;52.122;5.406;2022-10-16T13:25:44;7.78;;;1.05;;
72156;SDS011;60035;52.122;5.406;2022-10-16T13:28:27;6.90;;;1.25;;
72156;SDS011;60035;52.122;5.406;2022-10-16T13:30:58;11.15;;;1.00;;
72156;SDS011;60035;52.122;5.406;2022-10-16T13:33:31;9.07;;;1.60;;
72156;SDS011;60035;52.122;5.406;2022-10-16T13:36:01;8.70;;;1.45;;
72156;SDS011;60035;52.122;5.406;2022-10-16T13:38:32;7.32;;;0.90;;
72156;SDS011;60035;52.122;5.406;2022-10-16T13:41:19;7.03;;;1.35;;
72156;SDS011;60035;52.122;5.406;2022-10-16T13:43:47;6.78;;;1.08;;
72156;SDS011;60035;52.122;5.406;2022-10-16T13:46:20;6.90;;;0.80;;
72156;SDS011;60035;52.122;5.406;2022-10-16T13:49:04;7.10;;;1.30;;
72156;SDS011;60035;52.122;5.406;2022-10-16T13:51:32;7.05;;;1.40;;
72156;SDS011;60035;52.122;5.406;2022-10-16T13:53:59;5.45;;;1.00;;
72156;SDS011;60035;52.122;5.406;2022-10-16T13:56:26;8.13;;;1.20;;
72156;SDS011;60035;52.122;5.406;2022-10-16T13:59:02;7.47;;;1.70;;
72156;SDS011;60035;52.122;5.406;2022-10-16T14:04:04;6.93;;;1.38;;
72156;SDS011;60035;52.122;5.406;2022-10-16T14:06:33;7.95;;;1.13;;
72156;SDS011;60035;52.122;5.406;2022-10-16T14:09:23;7.38;;;1.55;;
72156;SDS011;60035;52.122;5.406;2022-10-16T14:11:56;6.25;;;1.40;;
72156;SDS011;60035;52.122;5.406;2022-10-16T14:14:26;6.40;;;1.30;;
72156;SDS011;60035;52.122;5.406;2022-10-16T14:16:56;10.52;;;1.00;;
72156;SDS011;60035;52.122;5.406;2022-10-16T14:19:26;8.50;;;1.55;;
72156;SDS011;60035;52.122;5.406;2022-10-16T14:21:55;8.50;;;1.23;;
72156;SDS011;60035;52.122;5.406;2022-10-16T14:24:32;9.98;;;1.60;;
72156;SDS011;60035;52.122;5.406;2022-10-16T14:27:00;6.35;;;1.30;;
72156;SDS011;60035;52.122;5.406;2022-10-16T14:29:28;8.55;;;1.33;;
72156;SDS011;60035;52.122;5.406;2022-10-16T14:31:59;9.23;;;1.60;;
72156;SDS011;60035;52.122;5.406;2022-10-16T14:34:37;8.30;;;1.35;;
72156;SDS011;60035;52.122;5.406;2022-10-16T14:37:08;8.48;;;1.55;;
72156;SDS011;60035;52.122;5.406;2022-10-16T14:39:52;7.32;;;1.40;;
72156;SDS011;60035;52.122;5.406;2022-10-16T14:42:20;7.50;;;1.27;;
72156;SDS011;60035;52.122;5.406;2022-10-16T14:44:50;6.93;;;1.23;;
72156;SDS011;60035;52.122;5.406;2022-10-16T14:47:20;10.45;;;1.27;;
72156;SDS011;60035;52.122;5.406;2022-10-16T14:49:53;10.07;;;1.50;;
72156;SDS011;60035;52.122;5.406;2022-10-16T14:52:25;9.57;;;1.40;;
72156;SDS011;60035;52.122;5.406;2022-10-16T14:54:51;9.05;;;1.40;;
72156;SDS011;60035;52.122;5.406;2022-10-16T14:57:22;10.68;;;1.60;;
72156;SDS011;60035;52.122;5.406;2022-10-16T14:59:50;8.40;;;1.33;;
72156;SDS011;60035;52.122;5.406;2022-10-16T15:04:47;10.82;;;1.98;;
72156;SDS011;60035;52.122;5.406;2022-10-16T15:07:14;8.43;;;1.33;;
72156;SDS011;60035;52.122;5.406;2022-10-16T15:09:41;5.15;;;1.40;;
72156;SDS011;60035;52.122;5.406;2022-10-16T15:12:14;8.48;;;1.40;;
72156;SDS011;60035;52.122;5.406;2022-10-16T15:14:41;9.60;;;1.50;;
72156;SDS011;60035;52.122;5.406;2022-10-16T15:17:10;8.00;;;1.40;;
72156;SDS011;60035;52.122;5.406;2022-10-16T15:19:37;8.32;;;1.17;;
72156;SDS011;60035;52.122;5.406;2022-10-16T15:22:03;7.40;;;1.50;;
72156;SDS011;60035;52.122;5.406;2022-10-16T15:24:30;7.00;;;1.55;;
72156;SDS011;60035;52.122;5.406;2022-10-16T15:26:56;9.77;;;1.27;;
72156;SDS011;60035;52.122;5.406;2022-10-16T15:29:23;10.20;;;1.42;;
72156;SDS011;60035;52.122;5.406;2022-10-16T15:31:49;9.90;;;1.70;;
72156;SDS011;60035;52.122;5.406;2022-10-16T15:34:16;11.35;;;1.40;;
72156;SDS011;60035;52.122;5.406;2022-10-16T15:36:45;7.38;;;1.48;;
72156;SDS011;60035;52.122;5.406;2022-10-16T15:39:12;10.68;;;2.25;;
72156;SDS011;60035;52.122;5.406;2022-10-16T15:41:41;8.60;;;2.17;;
72156;SDS011;60035;52.122;5.406;2022-10-16T15:44:08;6.95;;;1.75;;
72156;SDS011;60035;52.122;5.406;2022-10-16T15:46:34;9.00;;;1.77;;
72156;SDS011;60035;52.122;5.406;2022-10-16T15:49:02;7.80;;;1.67;;
72156;SDS011;60035;52.122;5.406;2022-10-16T15:51:29;9.10;;;2.17;;
72156;SDS011;60035;52.122;5.406;2022-10-16T15:53:56;8.68;;;1.38;;
72156;SDS011;60035;52.122;5.406;2022-10-16T15:56:23;8.07;;;1.70;;
72156;SDS011;60035;52.122;5.406;2022-10-16T15:58:51;8.25;;;2.00;;
72156;SDS011;60035;52.122;5.406;2022-10-16T16:01:19;7.60;;;1.80;;
72156;SDS011;60035;52.122;5.406;2022-10-16T16:03:46;8.85;;;2.42;;
72156;SDS011;60035;52.122;5.406;2022-10-16T16:06:13;12.55;;;1.92;;
72156;SDS011;60035;52.122;5.406;2022-10-16T16:08:41;8.05;;;2.00;;
72156;SDS011;60035;52.122;5.406;2022-10-16T16:11:11;7.75;;;1.55;;
72156;SDS011;60035;52.122;5.406;2022-10-16T16:13:41;7.40;;;1.67;;
72156;SDS011;60035;52.122;5.406;2022-10-16T16:16:08;5.57;;;1.35;;
72156;SDS011;60035;52.122;5.406;2022-10-16T16:18:36;7.75;;;1.83;;
72156;SDS011;60035;52.122;5.406;2022-10-16T16:21:02;9.43;;;1.98;;
72156;SDS011;60035;52.122;5.406;2022-10-16T16:23:29;9.52;;;1.42;;
72156;SDS011;60035;52.122;5.406;2022-10-16T16:26:03;8.20;;;1.55;;
72156;SDS011;60035;52.122;5.406;2022-10-16T16:28:36;9.90;;;1.77;;
72156;SDS011;60035;52.122;5.406;2022-10-16T16:31:03;9.32;;;1.77;;
72156;SDS011;60035;52.122;5.406;2022-10-16T16:33:30;8.70;;;1.40;;
72156;SDS011;60035;52.122;5.406;2022-10-16T16:35:58;11.32;;;2.40;;
72156;SDS011;60035;52.122;5.406;2022-10-16T16:38:26;11.55;;;2.65;;
72156;SDS011;60035;52.122;5.406;2022-10-16T16:40:53;8.00;;;2.00;;
72156;SDS011;60035;52.122;5.406;2022-10-16T16:43:25;15.13;;;4.25;;
72156;SDS011;60035;52.122;5.406;2022-10-16T16:45:52;9.55;;;2.50;;
72156;SDS011;60035;52.122;5.406;2022-10-16T16:48:20;8.50;;;2.08;;
72156;SDS011;60035;52.122;5.406;2022-10-16T16:50:47;7.07;;;1.58;;
72156;SDS011;60035;52.122;5.406;2022-10-16T16:53:14;11.43;;;2.58;;
72156;SDS011;60035;52.122;5.406;2022-10-16T16:55:40;12.18;;;3.78;;
72156;SDS011;60035;52.122;5.406;2022-10-16T16:58:07;18.17;;;8.95;;
72156;SDS011;60035;52.122;5.406;2022-10-16T17:00:33;13.63;;;8.45;;
72156;SDS011;60035;52.122;5.406;2022-10-16T17:02:59;14.25;;;6.22;;
72156;SDS011;60035;52.122;5.406;2022-10-16T17:05:26;11.57;;;4.90;;